Time;durP1;ratioP1;P1;durP2;ratioP2;P2;SDS_P1;SDS_P2;PMS_P1;PMS_P2;Temp;Humidity;BMP_temperature;BMP_pressure;BME280_temperature;BME280_humidity;BME280_pressure;Samples;Min_cycle;Max_cycle;Signal;HPM_P1;HPM_P2
2022/09/16 00:02:21;;;;;;;5.15;2.20;;;15.50;52.00;;;;;;4886072;29;20289;-42
2022/09/16 00:04:53;;;;;;;3.63;2.25;;;15.60;52.10;;;;;;4877079;29;20206;-35
2022/09/16 00:07:24;;;;;;;5.63;2.53;;;15.60;52.10;;;;;;4888224;29;20697;-35
2022/09/16 00:09:54;;;;;;;4.20;2.53;;;15.60;52.30;;;;;;4891856;29;20614;-36
2022/09/16 00:12:27;;;;;;;5.22;2.75;;;15.60;52.90;;;;;;4888346;29;20204;-35
2022/09/16 00:14:57;;;;;;;4.93;2.70;;;15.70;53.20;;;;;;4895412;29;20212;-37
2022/09/16 00:17:28;;;;;;;5.72;2.97;;;15.70;53.20;;;;;;4895918;29;20223;-35
2022/09/16 00:19:59;;;;;;;3.85;2.58;;;15.70;53.30;;;;;;4881786;29;20249;-38
2022/09/16 00:22:31;;;;;;;6.07;2.97;;;15.80;53.30;;;;;;4895926;29;20603;-41
2022/09/16 00:25:01;;;;;;;5.18;2.80;;;15.80;53.40;;;;;;4884313;29;20217;-38
2022/09/16 00:27:34;;;;;;;5.25;2.90;;;15.80;53.40;;;;;;4871902;29;20226;-38
2022/09/16 00:30:05;;;;;;;5.90;2.75;;;15.80;53.30;;;;;;4873745;29;20284;-37
2022/09/16 00:32:36;;;;;;;4.03;2.50;;;15.80;53.30;;;;;;4877301;29;20210;-35
2022/09/16 00:35:07;;;;;;;4.57;2.42;;;15.90;53.30;;;;;;4869726;29;20210;-37
2022/09/16 00:37:37;;;;;;;6.13;2.85;;;15.90;53.20;;;;;;4883821;29;20713;-35
2022/09/16 00:40:09;;;;;;;4.82;2.70;;;15.90;53.10;;;;;;4876109;29;20215;-39
2022/09/16 00:42:44;;;;;;;6.00;3.08;;;15.90;53.00;;;;;;4895073;29;20209;-42
2022/09/16 00:45:20;;;;;;;5.90;2.58;;;15.90;53.00;;;;;;4884222;29;20209;-35
2022/09/16 00:47:55;;;;;;;3.78;2.38;;;15.90;53.00;;;;;;4876619;29;20233;-38
2022/09/16 00:50:35;;;;;;;6.55;2.90;;;15.90;52.90;;;;;;4880546;29;20205;-39
2022/09/16 00:53:06;;;;;;;5.07;2.47;;;15.90;52.90;;;;;;4894912;29;20264;-39
2022/09/16 00:55:38;;;;;;;4.40;3.00;;;15.90;52.80;;;;;;4895488;29;20212;-35
2022/09/16 00:58:15;;;;;;;4.53;2.67;;;16.00;52.90;;;;;;4894889;29;20815;-35
2022/09/16 01:00:46;;;;;;;3.92;2.60;;;16.00;53.00;;;;;;4894898;29;20200;-34
2022/09/16 01:03:17;;;;;;;5.20;2.53;;;16.00;53.00;;;;;;4873248;29;20216;-40
2022/09/16 01:05:49;;;;;;;5.15;2.55;;;16.00;53.10;;;;;;4882008;29;20200;-40
2022/09/16 01:08:19;;;;;;;4.25;2.60;;;16.00;53.00;;;;;;4881113;29;20225;-37
2022/09/16 01:10:50;;;;;;;5.43;2.78;;;16.00;53.00;;;;;;4880817;29;20248;-35
2022/09/16 01:13:23;;;;;;;4.30;2.45;;;16.00;53.00;;;;;;4866984;29;20202;-37
2022/09/16 01:16:04;;;;;;;4.57;2.47;;;16.00;53.00;;;;;;4882098;29;20200;-40
2022/09/16 01:18:41;;;;;;;4.50;2.60;;;16.00;52.90;;;;;;4878280;29;20233;-40
2022/09/16 01:21:33;;;;;;;4.47;2.40;;;16.10;53.00;;;;;;4883292;29;20207;-40
2022/09/16 01:24:33;;;;;;;4.45;2.13;;;16.10;53.00;;;;;;4861180;29;20214;-40
2022/09/16 01:27:40;;;;;;;5.25;2.70;;;16.10;53.20;;;;;;4890857;29;20223;-47
2022/09/16 01:30:38;;;;;;;3.97;2.30;;;16.10;52.90;;;;;;4898168;29;20290;-35
2022/09/16 01:33:19;;;;;;;4.00;2.42;;;16.10;52.90;;;;;;4898775;29;20211;-37
2022/09/16 01:36:26;;;;;;;4.50;2.45;;;16.10;52.90;;;;;;4899317;29;20199;-41
2022/09/16 01:39:09;;;;;;;5.25;2.80;;;16.10;52.90;;;;;;4898327;29;20235;-38
2022/09/16 01:41:51;;;;;;;3.90;2.40;;;16.10;52.90;;;;;;4892092;29;20240;-48
2022/09/16 01:44:28;;;;;;;5.25;2.55;;;16.10;52.90;;;;;;4860999;29;20202;-39
2022/09/16 01:47:06;;;;;;;4.28;2.47;;;16.10;52.80;;;;;;4871516;29;20232;-35
2022/09/16 01:49:46;;;;;;;3.35;2.45;;;16.10;52.90;;;;;;4881897;29;20202;-37
2022/09/16 01:52:26;;;;;;;3.75;2.45;;;16.20;53.00;;;;;;4893211;29;20204;-35
2022/09/16 01:55:01;;;;;;;4.20;2.38;;;16.20;53.00;;;;;;4898327;29;20568;-35
2022/09/16 01:57:38;;;;;;;3.28;2.20;;;16.20;53.60;;;;;;4898230;29;20220;-36
2022/09/16 02:00:12;;;;;;;3.40;2.20;;;16.20;53.00;;;;;;4897558;29;20243;-35
2022/09/16 02:02:47;;;;;;;3.83;2.08;;;16.20;53.00;;;;;;4891757;29;20291;-35
2022/09/16 02:05:26;;;;;;;3.88;2.13;;;16.20;53.00;;;;;;4887270;29;20207;-38
2022/09/16 02:08:05;;;;;;;3.35;2.55;;;16.20;53.00;;;;;;4898234;29;20221;-35
2022/09/16 02:10:41;;;;;;;3.67;2.47;;;16.20;53.00;;;;;;4882663;29;20202;-36
2022/09/16 02:13:16;;;;;;;4.03;2.50;;;16.20;53.00;;;;;;4878619;29;20216;-36
2022/09/16 02:15:48;;;;;;;3.83;2.42;;;16.20;52.90;;;;;;4890237;29;20211;-36
2022/09/16 02:18:23;;;;;;;4.85;2.55;;;16.30;52.90;;;;;;4897375;29;20240;-35
2022/09/16 02:20:57;;;;;;;4.30;2.50;;;16.30;52.90;;;;;;4898061;29;20192;-35
2022/09/16 02:23:32;;;;;;;4.05;1.90;;;16.30;52.90;;;;;;4887593;29;20576;-35
2022/09/16 02:26:06;;;;;;;3.80;2.22;;;16.30;52.90;;;;;;4882192;29;20298;-35
2022/09/16 02:28:42;;;;;;;3.03;2.20;;;16.30;52.90;;;;;;4879091;29;20284;-35
2022/09/16 02:31:15;;;;;;;4.82;2.30;;;16.30;52.90;;;;;;4883576;29;20229;-43
2022/09/16 02:33:50;;;;;;;4.05;2.67;;;16.40;53.00;;;;;;4878938;29;20248;-37
2022/09/16 02:36:24;;;;;;;3.97;2.00;;;16.40;53.00;;;;;;4893762;29;20230;-39
2022/09/16 02:38:58;;;;;;;3.60;2.28;;;16.40;52.90;;;;;;4897293;29;20220;-36
2022/09/16 02:41:29;;;;;;;3.83;2.00;;;16.40;53.00;;;;;;4880692;29;20212;-46
2022/09/16 02:44:00;;;;;;;4.53;2.63;;;16.40;52.90;;;;;;4878349;29;20209;-35
2022/09/16 02:46:39;;;;;;;4.95;2.45;;;16.40;52.90;;;;;;4893518;29;20205;-36
2022/09/16 02:49:18;;;;;;;4.18;2.25;;;16.40;53.50;;;;;;4898190;29;20204;-35
2022/09/16 02:51:59;;;;;;;4.03;2.25;;;16.40;52.80;;;;;;4897226;29;20201;-36
2022/09/16 02:54:36;;;;;;;3.40;1.95;;;16.40;52.80;;;;;;4897914;29;20205;-35
2022/09/16 02:57:07;;;;;;;3.20;1.88;;;16.40;52.80;;;;;;4885279;29;20294;-43
2022/09/16 02:59:39;;;;;;;3.47;2.40;;;16.40;52.80;;;;;;4877146;29;20232;-35
2022/09/16 03:02:10;;;;;;;4.25;2.58;;;16.40;52.80;;;;;;4876243;29;20650;-39
2022/09/16 03:04:40;;;;;;;4.25;2.30;;;16.40;52.80;;;;;;4876193;29;20214;-35
2022/09/16 03:07:14;;;;;;;2.83;1.90;;;16.50;52.90;;;;;;4875996;29;20904;-35
2022/09/16 03:09:48;;;;;;;3.25;2.10;;;16.50;53.00;;;;;;4876076;29;20237;-35
2022/09/16 03:12:48;;;;;;;4.00;1.95;;;16.50;52.90;;;;;;4875891;29;20213;-36
2022/09/16 03:15:44;;;;;;;3.42;2.30;;;16.40;52.90;;;;;;4876710;29;20285;-35
2022/09/16 03:18:35;;;;;;;3.20;2.25;;;16.50;52.90;;;;;;4876972;29;20282;-37
2022/09/16 03:21:13;;;;;;;2.65;1.70;;;16.40;52.80;;;;;;4875951;29;20292;-37
2022/09/16 03:23:53;;;;;;;4.03;2.20;;;16.50;53.10;;;;;;4876732;29;20212;-35
2022/09/16 03:26:29;;;;;;;3.65;2.03;;;16.50;53.10;;;;;;4876378;29;20208;-35
2022/09/16 03:29:13;;;;;;;3.70;2.58;;;16.50;53.10;;;;;;4874246;29;20252;-41
2022/09/16 03:31:50;;;;;;;3.47;2.20;;;16.50;53.00;;;;;;4877036;29;20217;-36
2022/09/16 03:34:25;;;;;;;3.47;1.90;;;16.50;53.00;;;;;;4886537;29;20668;-35
2022/09/16 03:37:01;;;;;;;3.65;2.20;;;16.50;53.00;;;;;;4866099;29;20230;-40
2022/09/16 03:39:34;;;;;;;3.00;1.85;;;16.50;53.00;;;;;;4893655;29;20280;-35
2022/09/16 03:42:06;;;;;;;3.28;2.15;;;16.50;53.00;;;;;;4877793;29;20320;-35
2022/09/16 03:44:40;;;;;;;3.45;2.10;;;16.60;53.00;;;;;;4895092;29;20212;-37
2022/09/16 03:47:11;;;;;;;3.92;2.05;;;16.50;53.00;;;;;;4884011;29;20229;-36
2022/09/16 03:49:42;;;;;;;3.35;2.08;;;16.50;52.90;;;;;;4896622;29;20204;-36
2022/09/16 03:52:12;;;;;;;3.40;2.15;;;16.60;53.00;;;;;;4887115;29;20216;-38
2022/09/16 03:54:45;;;;;;;4.13;2.10;;;16.60;52.90;;;;;;4881369;29;20205;-42
2022/09/16 03:57:16;;;;;;;3.20;1.90;;;16.60;52.90;;;;;;4877568;29;20221;-35
2022/09/16 03:59:46;;;;;;;5.38;2.33;;;16.60;52.90;;;;;;4886567;29;20221;-41
2022/09/16 04:02:17;;;;;;;2.65;2.20;;;16.60;52.80;;;;;;4876911;29;20210;-39
2022/09/16 04:04:48;;;;;;;3.33;1.90;;;16.60;52.80;;;;;;4895480;29;20575;-35
2022/09/16 04:07:18;;;;;;;4.00;2.40;;;16.60;52.80;;;;;;4895740;29;20220;-43
2022/09/16 04:09:51;;;;;;;3.15;2.10;;;16.60;52.80;;;;;;4893492;29;20217;-35
2022/09/16 04:12:22;;;;;;;3.13;2.00;;;16.60;52.90;;;;;;4876867;29;20209;-37
2022/09/16 04:14:52;;;;;;;3.28;2.08;;;16.60;52.80;;;;;;4896363;29;20977;-35
2022/09/16 04:17:23;;;;;;;4.18;2.00;;;16.60;52.90;;;;;;4891692;29;20622;-35
2022/09/16 04:19:54;;;;;;;4.28;2.22;;;16.60;52.90;;;;;;4881376;29;20245;-36
2022/09/16 04:22:24;;;;;;;2.67;1.80;;;16.60;52.80;;;;;;4876227;29;20194;-36
2022/09/16 04:24:57;;;;;;;2.72;2.00;;;16.60;52.80;;;;;;4895006;29;20197;-36
2022/09/16 04:27:28;;;;;;;3.63;1.80;;;16.60;52.80;;;;;;4895718;29;20271;-36
2022/09/16 04:29:58;;;;;;;3.65;2.28;;;16.60;52.80;;;;;;4895077;29;20200;-35
2022/09/16 04:32:29;;;;;;;2.92;2.13;;;16.60;52.70;;;;;;4878411;29;20202;-36
2022/09/16 04:35:00;;;;;;;2.90;1.80;;;16.60;52.70;;;;;;4894962;29;20201;-35
2022/09/16 04:37:33;;;;;;;3.30;2.03;;;16.60;52.70;;;;;;4895584;29;20231;-35
2022/09/16 04:40:06;;;;;;;2.60;1.95;;;16.60;52.80;;;;;;4891057;29;20246;-35
2022/09/16 04:42:36;;;;;;;3.10;1.80;;;16.60;52.90;;;;;;4877688;29;20550;-37
2022/09/16 04:45:08;;;;;;;5.32;2.15;;;16.60;52.80;;;;;;4896019;29;20205;-35
2022/09/16 04:47:39;;;;;;;3.83;1.92;;;16.60;52.80;;;;;;4895950;29;20221;-36
2022/09/16 04:50:10;;;;;;;2.97;1.98;;;16.60;52.80;;;;;;4877482;29;20201;-36
2022/09/16 04:52:40;;;;;;;3.40;1.90;;;16.60;52.80;;;;;;4876876;29;20202;-35
2022/09/16 04:55:13;;;;;;;3.70;1.92;;;16.60;52.80;;;;;;4895786;29;20215;-35
2022/09/16 04:57:44;;;;;;;2.95;1.70;;;16.60;52.80;;;;;;4897239;29;20224;-35
2022/09/16 05:00:15;;;;;;;2.88;2.15;;;16.70;52.80;;;;;;4899054;29;20240;-35
2022/09/16 05:02:48;;;;;;;3.25;1.80;;;16.70;52.80;;;;;;4898830;29;20205;-35
2022/09/16 05:05:19;;;;;;;3.10;2.25;;;16.70;52.80;;;;;;4899432;29;20201;-35
2022/09/16 05:07:49;;;;;;;3.15;1.92;;;16.70;52.80;;;;;;4898927;29;20217;-36
2022/09/16 05:10:22;;;;;;;3.22;2.00;;;16.70;52.80;;;;;;4892476;29;20215;-35
2022/09/16 05:12:55;;;;;;;3.75;2.30;;;16.60;52.70;;;;;;4880699;29;20209;-38
2022/09/16 05:15:25;;;;;;;3.67;1.90;;;16.70;52.80;;;;;;4880722;29;20206;-40
2022/09/16 05:17:56;;;;;;;2.67;1.90;;;16.70;52.80;;;;;;4880030;29;20213;-35
2022/09/16 05:20:27;;;;;;;2.50;1.75;;;16.60;52.70;;;;;;4862242;29;20694;-35
2022/09/16 05:22:57;;;;;;;4.75;2.05;;;16.70;52.80;;;;;;4868644;29;20276;-36
2022/09/16 05:25:31;;;;;;;2.90;1.92;;;16.70;54.10;;;;;;4867847;29;20753;-41
2022/09/16 05:28:02;;;;;;;3.55;2.13;;;16.80;54.90;;;;;;4861948;29;20237;-43
2022/09/16 05:30:32;;;;;;;3.38;2.13;;;16.80;54.80;;;;;;4898574;29;20606;-35
2022/09/16 05:33:03;;;;;;;2.78;1.65;;;16.90;54.70;;;;;;4899116;29;20200;-35
2022/09/16 05:35:34;;;;;;;3.97;2.28;;;16.90;54.60;;;;;;4898607;29;20213;-42
2022/09/16 05:38:04;;;;;;;2.38;1.75;;;16.90;54.40;;;;;;4898962;29;20308;-38
2022/09/16 05:40:37;;;;;;;3.42;1.90;;;16.90;54.30;;;;;;4869835;29;20725;-37
2022/09/16 05:43:08;;;;;;;2.25;1.92;;;16.90;54.10;;;;;;4880346;29;20205;-35
2022/09/16 05:45:38;;;;;;;2.78;1.73;;;16.90;54.00;;;;;;4898976;29;20204;-40
2022/09/16 05:48:12;;;;;;;3.50;1.98;;;16.90;53.90;;;;;;4897674;29;20225;-35
2022/09/16 05:50:42;;;;;;;2.85;1.90;;;16.90;53.90;;;;;;4889248;29;20198;-35
2022/09/16 05:53:13;;;;;;;3.30;2.10;;;16.90;53.80;;;;;;4879137;29;20291;-38
2022/09/16 05:55:55;;;;;;;1.92;1.70;;;16.90;53.70;;;;;;4898410;29;20211;-35
2022/09/16 05:58:26;;;;;;;3.67;2.22;;;16.90;53.70;;;;;;4898510;29;20217;-35
2022/09/16 06:01:01;;;;;;;3.55;2.05;;;16.90;53.60;;;;;;4897791;29;20239;-35
2022/09/16 06:03:33;;;;;;;2.78;1.80;;;16.90;53.60;;;;;;4897255;29;20204;-36
2022/09/16 06:06:04;;;;;;;5.07;2.15;;;16.90;53.50;;;;;;4898141;29;20207;-35
2022/09/16 06:08:37;;;;;;;2.47;2.08;;;16.90;53.50;;;;;;4896956;29;20228;-35
2022/09/16 06:11:12;;;;;;;2.95;2.20;;;16.90;53.50;;;;;;4885504;29;20258;-39
2022/09/16 06:13:43;;;;;;;3.90;2.20;;;16.80;53.50;;;;;;4882726;29;20441;-35
2022/09/16 06:16:17;;;;;;;3.15;2.28;;;16.80;53.40;;;;;;4897676;29;20200;-37
2022/09/16 06:18:47;;;;;;;3.45;2.40;;;16.80;53.40;;;;;;4898078;29;20193;-35
2022/09/16 06:21:18;;;;;;;5.57;2.63;;;16.80;53.40;;;;;;4897737;29;20232;-35
2022/09/16 06:23:49;;;;;;;5.32;2.65;;;16.80;53.30;;;;;;4887927;29;20200;-35
2022/09/16 06:26:23;;;;;;;5.03;2.50;;;16.80;53.30;;;;;;4897610;29;20197;-37
2022/09/16 06:28:54;;;;;;;4.95;2.92;;;16.80;53.30;;;;;;4897484;29;20226;-35
2022/09/16 06:31:26;;;;;;;5.20;3.33;;;16.80;53.30;;;;;;4896333;29;20776;-35
2022/09/16 06:33:59;;;;;;;4.43;2.58;;;16.70;53.30;;;;;;4895398;29;20201;-38
2022/09/16 06:36:31;;;;;;;4.78;3.10;;;16.70;53.20;;;;;;4895190;29;20205;-39
2022/09/16 06:39:02;;;;;;;5.03;2.97;;;16.70;53.20;;;;;;4894858;29;20664;-39
2022/09/16 06:41:35;;;;;;;4.88;2.97;;;16.70;53.20;;;;;;4879588;29;20614;-35
2022/09/16 06:44:06;;;;;;;4.50;2.95;;;16.70;53.20;;;;;;4877124;29;20204;-36
2022/09/16 06:46:36;;;;;;;4.38;2.90;;;16.70;53.10;;;;;;4877864;29;20228;-40
2022/09/16 06:49:09;;;;;;;5.57;3.50;;;16.70;53.20;;;;;;4878596;29;20205;-45
2022/09/16 06:51:40;;;;;;;4.15;3.08;;;16.70;53.30;;;;;;4878060;29;20208;-44
2022/09/16 06:54:11;;;;;;;6.78;3.50;;;16.70;53.30;;;;;;4877580;29;20202;-36
2022/09/16 06:56:44;;;;;;;5.07;3.08;;;16.70;53.20;;;;;;4877388;29;20221;-37
2022/09/16 06:59:15;;;;;;;4.28;3.03;;;16.70;53.30;;;;;;4876574;29;20202;-36
2022/09/16 07:01:45;;;;;;;5.93;3.28;;;16.70;53.20;;;;;;4877582;29;20253;-37
2022/09/16 07:04:16;;;;;;;5.45;3.25;;;16.60;53.20;;;;;;4877801;29;20217;-40
2022/09/16 07:06:49;;;;;;;6.32;3.30;;;16.60;53.20;;;;;;4877979;29;20709;-39
2022/09/16 07:09:19;;;;;;;7.15;3.45;;;16.60;53.10;;;;;;4877652;29;20209;-37
2022/09/16 07:11:52;;;;;;;4.53;3.00;;;16.60;53.10;;;;;;4877372;29;20212;-40
2022/09/16 07:14:23;;;;;;;5.47;3.63;;;16.60;53.10;;;;;;4877180;29;20833;-38
2022/09/16 07:16:53;;;;;;;6.68;3.40;;;16.60;53.10;;;;;;4877621;29;20794;-46
2022/09/16 07:19:24;;;;;;;5.68;3.47;;;16.60;53.10;;;;;;4877302;29;20198;-42
2022/09/16 07:21:55;;;;;;;5.95;3.25;;;16.60;53.10;;;;;;4877072;29;20210;-44
2022/09/16 07:24:26;;;;;;;5.20;3.08;;;16.60;53.10;;;;;;4876768;29;20201;-39
2022/09/16 07:26:58;;;;;;;5.97;3.65;;;16.50;53.00;;;;;;4876557;29;20221;-36
2022/09/16 07:29:29;;;;;;;6.07;3.95;;;16.50;53.00;;;;;;4876466;29;20205;-47
2022/09/16 07:32:00;;;;;;;4.60;3.47;;;16.50;53.00;;;;;;4877342;29;20198;-39
2022/09/16 07:34:30;;;;;;;6.97;4.10;;;16.50;53.10;;;;;;4877430;29;20710;-40
2022/09/16 07:37:02;;;;;;;5.60;4.07;;;16.50;53.10;;;;;;4877143;29;20225;-38
2022/09/16 07:39:32;;;;;;;7.35;4.93;;;16.40;53.00;;;;;;4877075;29;20208;-40
2022/09/16 07:42:05;;;;;;;6.55;4.50;;;16.40;53.00;;;;;;4877334;29;20256;-35
2022/09/16 07:44:36;;;;;;;7.72;4.88;;;16.50;53.00;;;;;;4879542;29;20581;-41
2022/09/16 07:47:07;;;;;;;7.60;5.18;;;16.50;53.00;;;;;;4877216;29;20245;-42
2022/09/16 07:49:38;;;;;;;7.13;5.20;;;16.40;52.90;;;;;;4877580;29;20296;-35
2022/09/16 07:52:09;;;;;;;7.43;4.80;;;16.40;52.90;;;;;;4876779;29;20203;-35
2022/09/16 07:54:40;;;;;;;8.02;5.38;;;16.40;52.90;;;;;;4876642;29;20204;-37
2022/09/16 07:57:12;;;;;;;7.93;4.90;;;16.40;52.90;;;;;;4876779;29;20221;-44
2022/09/16 07:59:43;;;;;;;7.35;4.90;;;16.40;52.90;;;;;;4876641;29;20217;-43
2022/09/16 08:02:14;;;;;;;8.10;5.00;;;16.40;52.90;;;;;;4876875;29;20205;-36
2022/09/16 08:04:44;;;;;;;8.50;5.07;;;16.40;53.00;;;;;;4876713;29;20198;-45
2022/09/16 08:07:15;;;;;;;8.27;5.32;;;16.40;52.90;;;;;;4876624;29;20221;-42
2022/09/16 08:09:46;;;;;;;7.43;4.80;;;16.30;52.90;;;;;;4876361;29;20201;-35
2022/09/16 08:12:18;;;;;;;7.22;4.78;;;16.30;52.90;;;;;;4876753;29;20204;-37
2022/09/16 08:14:49;;;;;;;6.82;4.65;;;16.30;52.90;;;;;;4876417;29;20205;-37
2022/09/16 08:17:19;;;;;;;8.55;5.70;;;16.30;52.90;;;;;;4876441;29;20221;-42
2022/09/16 08:19:50;;;;;;;7.28;5.03;;;16.30;52.90;;;;;;4876517;29;20205;-46
2022/09/16 08:22:22;;;;;;;8.20;4.97;;;16.30;52.90;;;;;;4876699;29;20205;-37
2022/09/16 08:24:52;;;;;;;7.55;4.68;;;16.30;52.90;;;;;;4876382;29;20574;-38
2022/09/16 08:27:25;;;;;;;7.47;5.20;;;16.30;52.80;;;;;;4876514;29;20217;-37
2022/09/16 08:29:56;;;;;;;7.35;5.10;;;16.30;52.90;;;;;;4858000;29;20198;-35
2022/09/16 08:32:26;;;;;;;5.78;4.13;;;16.30;52.90;;;;;;4857566;29;20557;-36
2022/09/16 08:34:57;;;;;;;7.57;5.40;;;16.30;52.90;;;;;;4857244;29;20209;-44
2022/09/16 08:37:28;;;;;;;5.85;4.65;;;16.20;52.80;;;;;;4857618;29;20225;-37
2022/09/16 08:40:01;;;;;;;7.07;4.97;;;16.20;52.80;;;;;;4861289;29;20297;-38
2022/09/16 08:42:46;;;;;;;7.28;5.00;;;16.20;52.80;;;;;;4876433;29;20209;-38
2022/09/16 08:45:27;;;;;;;7.25;5.00;;;16.20;52.90;;;;;;4857800;29;20202;-35
2022/09/16 08:48:09;;;;;;;7.53;4.70;;;16.20;52.90;;;;;;4857751;29;20683;-36
2022/09/16 08:50:43;;;;;;;6.25;4.68;;;16.20;52.80;;;;;;4858534;29;20208;-35
2022/09/16 08:53:18;;;;;;;6.72;4.90;;;16.20;52.80;;;;;;4857528;29;20197;-41
2022/09/16 08:55:52;;;;;;;6.57;4.50;;;16.20;52.80;;;;;;4857612;29;20570;-40
2022/09/16 08:58:28;;;;;;;7.72;4.85;;;16.20;52.80;;;;;;4863015;29;20222;-39
2022/09/16 09:01:03;;;;;;;6.95;4.88;;;16.20;53.40;;;;;;4875893;29;20738;-38
2022/09/16 09:03:40;;;;;;;7.25;4.53;;;16.10;52.80;;;;;;4875591;29;20221;-35
2022/09/16 09:06:22;;;;;;;8.25;4.55;;;16.10;52.80;;;;;;4875882;29;20197;-36
2022/09/16 09:09:01;;;;;;;5.43;4.50;;;16.10;52.80;;;;;;4875608;29;20210;-39
2022/09/16 09:11:37;;;;;;;7.20;4.65;;;16.10;52.80;;;;;;4874944;29;20208;-44
2022/09/16 09:14:32;;;;;;;6.07;4.78;;;16.10;52.80;;;;;;4875245;29;20205;-39
2022/09/16 09:17:11;;;;;;;6.82;4.90;;;16.10;52.80;;;;;;4875997;29;20229;-38
2022/09/16 09:20:00;;;;;;;6.38;4.50;;;16.00;52.80;;;;;;4876122;29;20205;-35
2022/09/16 09:22:46;;;;;;;7.32;4.63;;;16.00;52.80;;;;;;4876012;29;20229;-38
2022/09/16 09:25:36;;;;;;;6.00;4.70;;;16.00;52.80;;;;;;4875553;29;20205;-39
2022/09/16 09:28:23;;;;;;;6.53;4.50;;;16.10;52.80;;;;;;4875462;29;20741;-44
2022/09/16 09:31:06;;;;;;;6.47;4.43;;;16.00;52.80;;;;;;4875509;29;20627;-43
2022/09/16 09:33:47;;;;;;;6.57;5.03;;;16.00;52.70;;;;;;4875530;29;20205;-40
2022/09/16 09:36:42;;;;;;;7.30;4.72;;;16.00;52.80;;;;;;4875591;29;20206;-41
2022/09/16 09:39:34;;;;;;;5.97;4.57;;;16.00;52.80;;;;;;4875977;29;20202;-37
2022/09/16 09:42:12;;;;;;;6.28;4.57;;;16.00;52.80;;;;;;4875789;29;20233;-42
2022/09/16 09:44:53;;;;;;;5.15;4.25;;;16.00;52.80;;;;;;4878081;29;20202;-35
2022/09/16 09:47:29;;;;;;;6.07;4.55;;;15.90;52.80;;;;;;4878833;29;20242;-43
2022/09/16 09:50:06;;;;;;;6.28;3.78;;;16.00;52.90;;;;;;4882144;29;20308;-36
2022/09/16 09:52:44;;;;;;;5.88;4.47;;;15.90;52.80;;;;;;4879243;29;20300;-36
2022/09/16 09:55:18;;;;;;;5.60;4.32;;;15.90;52.80;;;;;;4879091;29;20684;-37
2022/09/16 09:58:04;;;;;;;7.78;4.75;;;15.90;52.80;;;;;;4878759;29;20221;-45
2022/09/16 10:00:34;;;;;;;6.05;4.50;;;15.90;52.80;;;;;;4860098;29;20233;-39
2022/09/16 10:03:11;;;;;;;6.75;4.65;;;15.90;52.70;;;;;;4860075;29;20249;-44
2022/09/16 10:05:42;;;;;;;5.90;4.10;;;15.90;52.70;;;;;;4860328;29;20209;-37
2022/09/16 10:08:20;;;;;;;5.60;4.00;;;15.90;52.80;;;;;;4859884;29;20228;-37
2022/09/16 10:10:53;;;;;;;7.95;4.20;;;15.90;52.80;;;;;;4870389;29;20272;-36
2022/09/16 10:13:24;;;;;;;8.65;4.10;;;15.90;52.90;;;;;;4878285;29;20266;-43
2022/09/16 10:16:09;;;;;;;7.65;3.90;;;15.90;54.00;;;;;;4875136;29;20297;-38
2022/09/16 10:18:42;;;;;;;9.75;4.32;;;16.00;54.80;;;;;;4873035;29;20222;-41
2022/09/16 10:21:14;;;;;;;8.05;4.20;;;16.00;54.90;;;;;;4867808;29;20229;-45
2022/09/16 10:23:54;;;;;;;7.68;4.07;;;16.10;54.80;;;;;;4873142;29;20229;-41
2022/09/16 10:26:27;;;;;;;11.75;4.25;;;16.10;54.60;;;;;;4881140;29;20204;-41
2022/09/16 10:28:59;;;;;;;5.93;4.07;;;16.20;54.70;;;;;;4897540;29;20201;-44
2022/09/16 10:31:33;;;;;;;10.18;4.30;;;16.20;54.90;;;;;;4886895;29;20420;-50
2022/09/16 10:34:16;;;;;;;8.18;4.18;;;16.20;55.00;;;;;;4891730;29;20217;-35
2022/09/16 10:36:47;;;;;;;7.65;4.05;;;16.20;55.00;;;;;;4891740;29;20217;-35
2022/09/16 10:39:26;;;;;;;6.68;3.70;;;16.20;55.00;;;;;;4898389;29;20211;-35
2022/09/16 10:41:57;;;;;;;8.73;4.43;;;16.20;55.10;;;;;;4888301;29;20758;-45
2022/09/16 10:44:30;;;;;;;9.70;4.43;;;16.20;55.20;;;;;;4897904;29;20200;-43
2022/09/16 10:47:08;;;;;;;8.35;3.90;;;16.20;55.10;;;;;;4897332;29;20217;-42
2022/09/16 10:49:45;;;;;;;7.78;3.97;;;16.10;55.10;;;;;;4898510;29;20204;-39
2022/09/16 10:52:19;;;;;;;6.13;3.90;;;16.10;55.00;;;;;;4898107;29;20200;-42
2022/09/16 10:54:51;;;;;;;7.95;4.10;;;16.10;55.00;;;;;;4895722;29;20203;-38
2022/09/16 10:57:30;;;;;;;8.82;4.13;;;16.10;54.90;;;;;;4897688;29;20224;-42
2022/09/16 11:00:04;;;;;;;8.52;4.43;;;16.10;55.00;;;;;;4896459;29;20585;-40
2022/09/16 11:03:03;;;;;;;6.30;3.70;;;16.10;55.00;;;;;;4897339;29;20239;-36
2022/09/16 11:05:45;;;;;;;7.07;4.28;;;16.10;54.90;;;;;;4896642;29;20219;-36
2022/09/16 11:08:22;;;;;;;6.95;3.92;;;16.10;54.80;;;;;;4897312;29;20256;-36
2022/09/16 11:11:04;;;;;;;7.28;4.20;;;16.10;54.80;;;;;;4885781;29;20201;-35
2022/09/16 11:13:48;;;;;;;9.25;5.28;;;16.10;54.70;;;;;;4897386;29;20209;-36
2022/09/16 11:16:42;;;;;;;7.53;4.43;;;16.00;54.70;;;;;;4896699;29;20196;-35
2022/09/16 11:19:22;;;;;;;6.45;4.32;;;16.00;54.80;;;;;;4897334;29;20568;-36
2022/09/16 11:22:14;;;;;;;6.78;4.18;;;16.00;55.00;;;;;;4896794;29;20220;-39
2022/09/16 11:25:10;;;;;;;8.63;4.80;;;16.00;55.10;;;;;;4896959;29;20669;-48
2022/09/16 11:27:52;;;;;;;6.88;3.83;;;16.00;55.00;;;;;;4896339;29;20228;-40
2022/09/16 11:30:24;;;;;;;6.07;3.95;;;15.90;55.50;;;;;;4884046;29;20201;-43
2022/09/16 11:33:15;;;;;;;8.00;4.63;;;15.90;54.80;;;;;;4896492;29;20205;-46
2022/09/16 11:36:25;;;;;;;6.10;4.32;;;15.90;54.80;;;;;;4896805;29;20630;-35
2022/09/16 11:39:09;;;;;;;7.68;4.35;;;15.90;54.80;;;;;;4874650;29;20261;-38
2022/09/16 11:41:47;;;;;;;8.00;4.03;;;15.90;54.70;;;;;;4860180;29;20221;-35
2022/09/16 11:44:33;;;;;;;6.65;4.28;;;15.90;54.70;;;;;;4852696;29;20234;-41
2022/09/16 11:47:17;;;;;;;5.63;4.22;;;15.90;54.60;;;;;;4882153;29;20583;-35
2022/09/16 11:50:07;;;;;;;5.38;4.10;;;15.90;54.60;;;;;;4896914;29;20203;-38
2022/09/16 11:52:51;;;;;;;5.60;4.20;;;15.80;54.70;;;;;;4895876;29;20650;-40
2022/09/16 11:55:44;;;;;;;6.55;3.95;;;15.80;54.60;;;;;;4895486;29;20200;-41
2022/09/16 11:58:29;;;;;;;5.45;3.90;;;15.80;54.50;;;;;;4896368;29;20221;-35
2022/09/16 12:01:08;;;;;;;5.80;4.10;;;15.80;54.50;;;;;;4895950;29;20294;-46
2022/09/16 12:03:43;;;;;;;6.50;3.78;;;15.70;54.50;;;;;;4895961;29;20205;-39
2022/09/16 12:06:18;;;;;;;6.05;3.67;;;15.70;54.50;;;;;;4895913;29;20219;-42
2022/09/16 12:08:58;;;;;;;7.15;3.67;;;15.70;54.40;;;;;;4896566;29;20200;-42
2022/09/16 12:11:35;;;;;;;5.90;4.00;;;15.70;54.40;;;;;;4886139;29;20594;-45
2022/09/16 12:14:15;;;;;;;6.40;3.55;;;15.70;54.30;;;;;;4896755;29;20200;-39
2022/09/16 12:16:49;;;;;;;6.20;3.67;;;15.70;54.30;;;;;;4896178;29;20228;-40
2022/09/16 12:19:24;;;;;;;6.07;3.80;;;15.70;54.40;;;;;;4896447;29;20213;-41
2022/09/16 12:21:58;;;;;;;5.38;3.33;;;15.70;54.40;;;;;;4894443;29;20274;-35
2022/09/16 12:24:37;;;;;;;6.40;3.90;;;15.60;54.30;;;;;;4894743;29;20201;-38
2022/09/16 12:27:16;;;;;;;5.70;3.60;;;15.60;54.30;;;;;;4894826;29;20228;-39
2022/09/16 12:29:53;;;;;;;5.25;3.30;;;15.50;54.30;;;;;;4893289;29;20224;-43
2022/09/16 12:32:36;;;;;;;5.70;3.63;;;15.50;54.30;;;;;;4876165;29;20212;-36
2022/09/16 12:35:15;;;;;;;5.53;3.53;;;15.50;54.30;;;;;;4875148;29;20197;-46
2022/09/16 12:37:50;;;;;;;5.88;3.42;;;15.50;54.30;;;;;;4875624;29;20282;-42
2022/09/16 12:40:24;;;;;;;5.15;3.65;;;15.50;54.30;;;;;;4875567;29;20205;-36
2022/09/16 12:43:14;;;;;;;5.80;3.38;;;15.50;54.20;;;;;;4866493;29;20225;-43
2022/09/16 12:46:27;;;;;;;4.10;3.35;;;15.50;54.20;;;;;;4865334;29;20197;-42
2022/09/16 12:49:25;;;;;;;5.07;3.70;;;15.50;54.10;;;;;;4876433;29;20201;-41
2022/09/16 12:52:27;;;;;;;5.78;3.78;;;15.40;54.10;;;;;;4876081;29;20208;-44
2022/09/16 12:55:44;;;;;;;4.85;3.38;;;15.40;54.70;;;;;;4872896;29;20197;-37
2022/09/16 12:58:45;;;;;;;5.75;3.38;;;15.40;54.10;;;;;;4863645;29;20298;-41
2022/09/16 13:01:27;;;;;;;6.88;3.85;;;15.30;54.10;;;;;;4866157;29;20205;-35
2022/09/16 13:04:02;;;;;;;5.20;3.15;;;15.30;54.10;;;;;;4870991;29;20200;-40
2022/09/16 13:06:35;;;;;;;6.53;3.63;;;15.30;54.10;;;;;;4876066;29;20232;-38
2022/09/16 13:09:22;;;;;;;5.68;3.50;;;15.20;54.10;;;;;;4876277;29;20205;-43
2022/09/16 13:12:00;;;;;;;5.15;3.13;;;15.20;54.10;;;;;;4875789;29;20216;-35
2022/09/16 13:14:35;;;;;;;4.35;3.00;;;15.20;54.10;;;;;;4875949;29;20261;-37
2022/09/16 13:17:05;;;;;;;4.78;3.55;;;15.20;54.10;;;;;;4875796;29;20240;-35
2022/09/16 13:19:43;;;;;;;5.15;3.10;;;15.20;54.00;;;;;;4878918;29;20205;-35
2022/09/16 13:22:30;;;;;;;5.28;3.03;;;15.10;54.00;;;;;;4879301;29;20229;-41
2022/09/16 13:25:11;;;;;;;5.15;3.20;;;15.10;54.00;;;;;;4878710;29;20202;-42
2022/09/16 13:27:42;;;;;;;5.90;3.45;;;15.10;54.00;;;;;;4878784;29;20221;-39
2022/09/16 13:30:30;;;;;;;4.93;3.13;;;15.10;54.00;;;;;;4878894;29;20658;-38
2022/09/16 13:33:17;;;;;;;4.75;3.25;;;15.10;54.00;;;;;;4879038;29;20205;-45
2022/09/16 13:35:49;;;;;;;5.20;3.00;;;15.00;53.90;;;;;;4870629;29;20205;-41